Time;durP1;ratioP1;P1;durP2;ratioP2;P2;SDS_P1;SDS_P2;PMS_P1;PMS_P2;Temp;Humidity;BMP_temperature;BMP_pressure;BME280_temperature;BME280_humidity;BME280_pressure;Samples;Min_cycle;Max_cycle;Signal;HPM_P1;HPM_P2
2022/09/12 00:01:22;;;;;;;1.80;1.50;;;19.90;65.90;;;;;;5053651;28;20059;-73
2022/09/12 00:03:50;;;;;;;2.20;1.63;;;19.90;65.90;;;;;;5053690;28;20079;-73
2022/09/12 00:06:18;;;;;;;2.00;1.67;;;19.90;66.00;;;;;;5053627;28;20048;-73
2022/09/12 00:08:45;;;;;;;1.67;1.58;;;19.90;65.90;;;;;;5054971;28;20049;-73
2022/09/12 00:11:14;;;;;;;1.77;1.67;;;19.90;65.90;;;;;;5053191;28;20057;-73
2022/09/12 00:13:41;;;;;;;1.98;1.48;;;19.90;65.90;;;;;;5053890;28;20410;-73
2022/09/12 00:16:08;;;;;;;2.00;1.73;;;19.90;65.90;;;;;;5054682;28;20045;-73
2022/09/12 00:18:35;;;;;;;1.70;1.60;;;19.90;66.40;;;;;;5054786;28;20049;-73
2022/09/12 00:21:02;;;;;;;1.63;1.52;;;19.90;65.90;;;;;;5054558;28;20045;-73
2022/09/12 00:23:29;;;;;;;2.05;1.40;;;19.90;65.90;;;;;;5053264;28;20057;-73
2022/09/12 00:25:56;;;;;;;1.60;1.50;;;19.90;65.90;;;;;;5053088;28;20063;-73
2022/09/12 00:28:24;;;;;;;1.70;1.60;;;19.90;65.90;;;;;;5053696;28;20486;-73
2022/09/12 00:30:50;;;;;;;1.70;1.60;;;19.90;65.90;;;;;;5052964;28;20055;-72
2022/09/12 00:33:17;;;;;;;1.95;1.60;;;19.90;65.90;;;;;;5054513;28;20055;-73
2022/09/12 00:35:44;;;;;;;2.17;1.67;;;19.80;65.80;;;;;;5053082;28;20045;-73
2022/09/12 00:38:11;;;;;;;2.13;1.60;;;19.80;65.80;;;;;;5053379;28;20107;-74
2022/09/12 00:40:38;;;;;;;1.60;1.50;;;19.80;65.80;;;;;;5052901;28;20063;-73
2022/09/12 00:43:05;;;;;;;1.60;1.42;;;19.80;65.80;;;;;;5052958;28;20137;-73
2022/09/12 00:45:33;;;;;;;2.05;1.67;;;19.70;66.10;;;;;;5052605;28;20053;-73
2022/09/12 00:48:01;;;;;;;1.80;1.70;;;19.80;65.80;;;;;;5053267;28;20136;-73
2022/09/12 00:50:28;;;;;;;1.75;1.42;;;19.80;65.80;;;;;;5052853;28;20064;-73
2022/09/12 00:52:56;;;;;;;2.20;1.40;;;19.80;65.80;;;;;;5053082;28;20057;-73
2022/09/12 00:55:25;;;;;;;1.90;1.60;;;19.80;65.80;;;;;;5052805;28;20156;-72
2022/09/12 00:57:53;;;;;;;2.00;1.35;;;19.80;65.80;;;;;;5052969;28;20057;-73
2022/09/12 01:00:21;;;;;;;1.70;1.60;;;19.80;65.80;;;;;;5052763;28;20053;-72
2022/09/12 01:02:50;;;;;;;1.58;1.38;;;19.80;65.80;;;;;;5052951;28;20057;-72
2022/09/12 01:05:17;;;;;;;2.35;1.67;;;19.80;65.80;;;;;;5052494;28;20132;-71
2022/09/12 01:07:47;;;;;;;1.90;1.67;;;19.80;65.80;;;;;;5053764;28;20052;-72
2022/09/12 01:10:14;;;;;;;2.45;1.63;;;19.80;65.80;;;;;;5052399;28;20061;-72
2022/09/12 01:12:40;;;;;;;1.70;1.52;;;19.80;65.70;;;;;;5053924;28;20049;-71
2022/09/12 01:15:07;;;;;;;2.22;1.60;;;19.80;65.80;;;;;;5052390;28;20059;-71
2022/09/12 01:17:37;;;;;;;2.13;1.50;;;19.80;65.80;;;;;;5052324;28;20478;-72
2022/09/12 01:20:25;;;;;;;1.95;1.70;;;19.70;65.70;;;;;;5051980;28;20045;-71
2022/09/12 01:23:23;;;;;;;2.70;1.52;;;19.80;65.70;;;;;;5052280;28;20057;-71
2022/09/12 01:26:00;;;;;;;1.67;1.58;;;19.70;65.70;;;;;;5051961;28;20057;-71
2022/09/12 01:28:42;;;;;;;1.77;1.48;;;19.70;65.80;;;;;;5052546;28;20065;-71
2022/09/12 01:31:12;;;;;;;2.03;1.58;;;19.70;65.70;;;;;;5053181;28;20045;-71
2022/09/12 01:33:45;;;;;;;1.90;1.63;;;19.70;65.80;;;;;;5052069;28;20055;-71
2022/09/12 01:36:24;;;;;;;1.60;1.50;;;19.70;65.70;;;;;;5052306;28;20092;-71
2022/09/12 01:38:53;;;;;;;1.83;1.48;;;19.70;65.70;;;;;;5053083;28;20421;-71
2022/09/12 01:41:23;;;;;;;2.00;1.60;;;19.70;65.80;;;;;;5051933;28;20132;-71
2022/09/12 01:43:51;;;;;;;1.90;1.55;;;19.70;65.70;;;;;;5052256;28;20057;-71
2022/09/12 01:46:21;;;;;;;1.55;1.45;;;19.70;65.70;;;;;;5051989;28;20524;-71
2022/09/12 01:48:51;;;;;;;1.73;1.42;;;19.70;65.70;;;;;;5032568;28;20091;-71
2022/09/12 01:51:20;;;;;;;1.73;1.42;;;19.70;65.70;;;;;;5031486;28;20421;-71
2022/09/12 01:53:48;;;;;;;2.05;1.80;;;19.70;65.70;;;;;;5032157;28;20057;-71
2022/09/12 01:56:19;;;;;;;1.65;1.50;;;19.70;67.90;;;;;;5033086;28;20041;-71
2022/09/12 01:58:46;;;;;;;2.05;1.60;;;19.60;65.60;;;;;;5031647;28;20056;-71
2022/09/12 02:01:15;;;;;;;2.00;1.63;;;19.70;65.70;;;;;;5031258;28;20060;-71
2022/09/12 02:03:44;;;;;;;1.60;1.40;;;19.60;65.60;;;;;;5042225;28;20055;-71
2022/09/12 02:06:15;;;;;;;2.25;1.50;;;19.70;65.70;;;;;;5051521;28;20056;-72
2022/09/12 02:08:43;;;;;;;1.67;1.50;;;19.70;65.70;;;;;;5051377;28;20059;-71
2022/09/12 02:11:11;;;;;;;1.58;1.48;;;19.70;65.70;;;;;;5051448;28;20057;-71
2022/09/12 02:13:42;;;;;;;1.63;1.50;;;20.70;68.00;;;;;;5051265;28;20049;-71
2022/09/12 02:16:10;;;;;;;1.90;1.70;;;19.60;65.70;;;;;;5052423;28;20071;-71
2022/09/12 02:18:37;;;;;;;3.05;1.50;;;19.60;65.70;;;;;;5052226;28;20053;-71
2022/09/12 02:21:06;;;;;;;2.03;1.83;;;19.60;65.70;;;;;;5050761;28;20045;-71
2022/09/12 02:23:32;;;;;;;1.50;1.40;;;19.60;65.70;;;;;;5050913;28;20048;-71
2022/09/12 02:26:01;;;;;;;1.90;1.60;;;19.60;65.70;;;;;;5050809;28;20059;-71
2022/09/12 02:28:30;;;;;;;1.67;1.58;;;19.60;65.70;;;;;;5050693;28;20417;-71
2022/09/12 02:31:01;;;;;;;1.73;1.60;;;19.60;65.70;;;;;;5052076;28;20049;-71
2022/09/12 02:33:30;;;;;;;1.73;1.60;;;19.60;65.70;;;;;;5052055;28;20413;-71
2022/09/12 02:35:59;;;;;;;1.80;1.60;;;19.60;65.70;;;;;;5050892;28;20049;-71
2022/09/12 02:38:29;;;;;;;1.90;1.70;;;19.60;65.70;;;;;;5051172;28;20049;-72
2022/09/12 02:40:56;;;;;;;2.00;1.80;;;19.50;66.20;;;;;;5050408;28;20413;-72
2022/09/12 02:43:23;;;;;;;1.70;1.58;;;19.60;65.70;;;;;;5050816;28;20049;-71
2022/09/12 02:45:49;;;;;;;2.45;1.90;;;19.60;65.70;;;;;;5051035;28;20056;-71
2022/09/12 02:48:18;;;;;;;2.33;1.80;;;19.50;65.60;;;;;;5050858;28;20506;-72
2022/09/12 02:50:44;;;;;;;1.90;1.70;;;19.50;65.60;;;;;;5050773;28;20053;-73
2022/09/12 02:53:11;;;;;;;2.03;1.83;;;19.50;65.60;;;;;;5051063;28;20413;-71
2022/09/12 02:55:39;;;;;;;1.85;1.60;;;19.50;65.60;;;;;;5050566;28;20057;-71
2022/09/12 02:58:07;;;;;;;2.15;1.80;;;19.50;65.60;;;;;;5050804;28;20136;-71
2022/09/12 03:00:39;;;;;;;2.30;1.73;;;19.50;65.60;;;;;;5050154;28;20057;-71
2022/09/12 03:03:21;;;;;;;1.95;1.75;;;19.50;66.10;;;;;;5050949;28;20136;-71
2022/09/12 03:05:53;;;;;;;2.08;1.80;;;19.50;65.60;;;;;;5050660;28;20064;-71
2022/09/12 03:08:33;;;;;;;1.85;1.75;;;19.50;65.60;;;;;;5050557;28;20060;-72
2022/09/12 03:11:14;;;;;;;1.85;1.63;;;19.50;65.60;;;;;;5034348;28;20059;-71
2022/09/12 03:13:46;;;;;;;2.20;1.70;;;19.50;65.50;;;;;;5050918;28;20107;-72
2022/09/12 03:16:15;;;;;;;2.58;1.80;;;19.50;65.60;;;;;;5050654;28;20059;-71
2022/09/12 03:18:48;;;;;;;2.13;1.90;;;19.50;65.60;;;;;;5051814;28;20048;-71
2022/09/12 03:21:18;;;;;;;1.70;1.60;;;19.50;65.60;;;;;;5050064;28;20075;-71
2022/09/12 03:23:50;;;;;;;2.00;1.80;;;19.50;65.50;;;;;;5050637;28;20049;-71
2022/09/12 03:26:21;;;;;;;2.20;1.77;;;19.50;65.60;;;;;;5050459;28;20059;-71
2022/09/12 03:28:47;;;;;;;1.85;1.70;;;19.40;65.50;;;;;;5050531;28;20053;-73
2022/09/12 03:31:15;;;;;;;2.00;1.80;;;19.40;65.50;;;;;;5051325;28;20075;-71
2022/09/12 03:33:41;;;;;;;2.22;1.90;;;19.40;65.50;;;;;;5050575;28;20059;-71
2022/09/12 03:36:13;;;;;;;2.08;1.80;;;19.40;65.40;;;;;;5054009;28;20063;-71
2022/09/12 03:38:39;;;;;;;2.10;1.90;;;19.40;65.40;;;;;;5071028;28;20052;-71
2022/09/12 03:41:06;;;;;;;1.95;1.75;;;19.40;65.50;;;;;;5054264;28;20063;-72
2022/09/12 03:43:34;;;;;;;2.33;1.80;;;19.40;65.40;;;;;;5054497;28;20057;-71
2022/09/12 03:46:01;;;;;;;2.03;1.80;;;19.40;65.40;;;;;;5055198;28;20413;-71
2022/09/12 03:48:27;;;;;;;2.08;1.85;;;19.40;65.40;;;;;;5054051;28;20053;-70
2022/09/12 03:50:54;;;;;;;2.28;2.08;;;19.40;65.40;;;;;;5054947;28;20048;-73
2022/09/12 03:53:21;;;;;;;2.63;2.22;;;19.40;65.40;;;;;;5054110;28;20063;-71
2022/09/12 03:55:48;;;;;;;2.55;1.80;;;19.40;65.40;;;;;;5054195;28;20425;-71
2022/09/12 03:58:15;;;;;;;2.13;1.92;;;19.40;65.40;;;;;;5053195;28;20055;-72
2022/09/12 04:00:43;;;;;;;2.25;1.80;;;19.40;65.40;;;;;;5053360;28;20478;-71
2022/09/12 04:03:09;;;;;;;2.25;1.98;;;19.40;65.40;;;;;;5052864;28;20127;-71
2022/09/12 04:05:36;;;;;;;3.53;2.33;;;19.40;65.40;;;;;;5053751;28;20051;-71
2022/09/12 04:08:03;;;;;;;2.35;2.15;;;19.30;65.40;;;;;;5052388;28;20049;-71
2022/09/12 04:10:30;;;;;;;2.60;2.30;;;19.40;65.40;;;;;;5053100;28;20049;-71
2022/09/12 04:12:57;;;;;;;4.20;2.30;;;19.40;65.40;;;;;;5054325;28;20047;-71
2022/09/12 04:15:24;;;;;;;2.17;1.90;;;19.40;65.60;;;;;;5053157;28;20064;-71
2022/09/12 04:17:52;;;;;;;2.38;2.15;;;19.30;65.40;;;;;;5054291;28;20137;-71
2022/09/12 04:20:19;;;;;;;2.35;2.15;;;19.40;65.40;;;;;;5053442;28;20076;-72
2022/09/12 04:22:46;;;;;;;3.00;2.60;;;19.30;65.40;;;;;;5053043;28;20055;-71
2022/09/12 04:25:13;;;;;;;2.70;2.28;;;19.30;65.40;;;;;;5053147;28;20061;-71
2022/09/12 04:27:40;;;;;;;2.55;2.30;;;19.30;65.40;;;;;;5052651;28;20044;-71
2022/09/12 04:30:08;;;;;;;2.55;2.30;;;19.30;65.40;;;;;;5052698;28;20044;-70
2022/09/12 04:32:35;;;;;;;3.13;2.25;;;19.30;65.40;;;;;;5053919;28;20072;-71
2022/09/12 04:35:03;;;;;;;2.60;2.40;;;19.30;65.40;;;;;;5053577;28;20067;-71
2022/09/12 04:37:30;;;;;;;2.90;2.60;;;19.30;65.40;;;;;;5053297;28;20509;-71
2022/09/12 04:39:58;;;;;;;3.80;2.55;;;19.30;65.40;;;;;;5054151;28;20059;-71
2022/09/12 04:42:24;;;;;;;2.70;2.42;;;19.30;65.40;;;;;;5053070;28;20053;-71
2022/09/12 04:44:51;;;;;;;3.03;2.70;;;19.30;65.40;;;;;;5052865;28;20052;-71
2022/09/12 04:47:18;;;;;;;2.92;2.70;;;19.30;65.40;;;;;;5052907;28;20059;-73
2022/09/12 04:49:45;;;;;;;4.35;2.70;;;19.30;65.40;;;;;;5054244;28;20049;-71
2022/09/12 04:52:13;;;;;;;3.85;2.60;;;19.30;65.40;;;;;;5052858;28;20135;-71
2022/09/12 04:54:40;;;;;;;2.60;2.33;;;19.30;65.40;;;;;;5053000;28;20057;-71
2022/09/12 04:57:06;;;;;;;4.00;2.67;;;19.30;65.40;;;;;;5052688;28;20044;-71
2022/09/12 04:59:33;;;;;;;3.00;2.70;;;19.30;65.40;;;;;;5053999;28;20045;-71
2022/09/12 05:02:00;;;;;;;3.67;3.13;;;19.30;67.30;;;;;;5053583;28;20055;-71
2022/09/12 05:04:27;;;;;;;2.92;2.47;;;19.30;65.40;;;;;;5054040;28;20450;-71
2022/09/12 05:06:54;;;;;;;2.97;2.47;;;19.30;65.90;;;;;;5052813;28;20049;-70
2022/09/12 05:09:22;;;;;;;3.40;3.00;;;19.30;65.40;;;;;;5052488;28;20057;-71
2022/09/12 05:11:49;;;;;;;2.88;2.45;;;19.30;65.40;;;;;;5053616;28;20053;-71
2022/09/12 05:14:16;;;;;;;5.25;3.35;;;19.20;65.30;;;;;;5053686;28;20045;-71
2022/09/12 05:16:43;;;;;;;3.10;2.70;;;19.20;65.30;;;;;;5052415;28;20053;-72
2022/09/12 05:19:11;;;;;;;4.22;3.03;;;19.30;65.40;;;;;;5053453;28;20140;-71
2022/09/12 05:21:37;;;;;;;3.42;2.85;;;19.30;65.40;;;;;;5053317;28;20135;-71
2022/09/12 05:24:05;;;;;;;3.33;2.70;;;19.20;65.30;;;;;;5053349;28;20049;-71
2022/09/12 05:26:33;;;;;;;3.30;2.70;;;19.20;65.40;;;;;;5053374;28;20453;-71
2022/09/12 05:29:00;;;;;;;4.75;2.90;;;19.30;65.40;;;;;;5052445;28;20132;-71
2022/09/12 05:31:27;;;;;;;3.28;2.80;;;19.80;67.70;;;;;;5051952;28;20498;-71
2022/09/12 05:33:54;;;;;;;3.83;3.25;;;19.20;65.30;;;;;;5052106;28;20049;-71
2022/09/12 05:36:22;;;;;;;3.92;2.80;;;19.20;65.40;;;;;;5053185;28;20654;-71
2022/09/12 05:38:49;;;;;;;4.15;3.35;;;19.20;65.30;;;;;;5052210;28;20489;-72
2022/09/12 05:41:17;;;;;;;3.25;2.95;;;19.20;65.30;;;;;;5052976;28;20040;-71
2022/09/12 05:43:45;;;;;;;3.40;3.10;;;19.20;65.30;;;;;;5053430;28;20128;-71
2022/09/12 05:46:13;;;;;;;3.30;3.00;;;19.20;65.30;;;;;;5051780;28;20060;-71
2022/09/12 05:48:41;;;;;;;4.20;3.30;;;19.20;65.30;;;;;;5052793;28;20085;-71
2022/09/12 05:51:09;;;;;;;3.70;3.17;;;19.20;65.30;;;;;;5052165;28;20049;-71
2022/09/12 05:53:36;;;;;;;3.63;2.90;;;19.20;65.30;;;;;;5051967;28;20088;-71
2022/09/12 05:56:06;;;;;;;3.30;3.00;;;19.30;65.30;;;;;;5052867;28;20045;-70
2022/09/12 05:58:33;;;;;;;3.38;3.08;;;19.30;65.30;;;;;;5050615;28;20056;-71
2022/09/12 06:01:07;;;;;;;3.50;3.20;;;19.30;65.30;;;;;;5051243;28;20057;-71
2022/09/12 06:03:34;;;;;;;3.40;3.00;;;19.20;65.20;;;;;;5052842;28;20055;-71
2022/09/12 06:06:04;;;;;;;3.28;2.97;;;19.30;65.30;;;;;;5052588;28;20051;-71
2022/09/12 06:08:31;;;;;;;3.30;2.80;;;19.30;65.30;;;;;;5051294;28;20048;-71
2022/09/12 06:10:59;;;;;;;3.15;2.85;;;19.30;65.30;;;;;;5051142;28;20434;-73
2022/09/12 06:13:26;;;;;;;3.22;2.80;;;19.30;65.30;;;;;;5051407;28;20052;-71
2022/09/12 06:15:53;;;;;;;3.50;3.00;;;19.30;65.30;;;;;;5051636;28;20409;-72
2022/09/12 06:18:21;;;;;;;3.35;2.78;;;18.20;67.00;;;;;;5051684;28;20060;-71
2022/09/12 06:20:48;;;;;;;3.63;2.80;;;19.30;65.30;;;;;;5052196;28;20477;-71
2022/09/12 06:23:15;;;;;;;2.92;2.55;;;19.30;65.30;;;;;;5051055;28;20053;-71
2022/09/12 06:25:47;;;;;;;3.17;2.88;;;19.30;65.30;;;;;;5051276;28;20067;-71
2022/09/12 06:28:13;;;;;;;3.13;2.60;;;19.30;65.30;;;;;;5052057;28;20048;-71
2022/09/12 06:30:40;;;;;;;2.95;2.60;;;19.30;65.30;;;;;;5051096;28;20518;-71
2022/09/12 06:33:07;;;;;;;3.03;2.67;;;19.30;65.30;;;;;;5050838;28;20056;-72
2022/09/12 06:35:37;;;;;;;2.88;2.45;;;19.10;65.40;;;;;;5051086;28;20052;-71
2022/09/12 06:38:04;;;;;;;3.08;2.78;;;19.30;65.20;;;;;;5052247;28;20040;-71
2022/09/12 06:40:30;;;;;;;2.72;2.50;;;19.30;65.30;;;;;;5051063;28;20053;-71
2022/09/12 06:42:57;;;;;;;3.30;2.83;;;19.30;65.30;;;;;;5051681;28;20053;-72
2022/09/12 06:45:24;;;;;;;2.90;2.60;;;19.30;65.30;;;;;;5050480;28;20056;-70
2022/09/12 06:47:51;;;;;;;3.75;3.28;;;19.30;65.20;;;;;;5051755;28;20044;-72
2022/09/12 06:50:18;;;;;;;3.35;2.70;;;19.30;65.20;;;;;;5050812;28;20067;-72
2022/09/12 06:52:48;;;;;;;3.00;2.60;;;19.30;65.20;;;;;;5050851;28;20482;-71
2022/09/12 06:55:15;;;;;;;3.50;2.88;;;19.30;65.20;;;;;;5050718;28;20470;-71
2022/09/12 06:57:42;;;;;;;3.72;3.00;;;19.30;65.20;;;;;;5051132;28;20572;-72
2022/09/12 07:00:10;;;;;;;3.45;2.90;;;19.30;65.20;;;;;;5050629;28;20132;-71
2022/09/12 07:02:37;;;;;;;3.30;3.00;;;19.30;65.20;;;;;;5050945;28;20056;-72
2022/09/12 07:05:05;;;;;;;3.40;2.78;;;19.30;65.20;;;;;;5051156;28;20102;-73
2022/09/12 07:07:33;;;;;;;3.20;2.90;;;19.40;65.20;;;;;;5050240;28;20383;-74
2022/09/12 07:10:01;;;;;;;3.85;2.80;;;19.30;65.20;;;;;;5057832;28;20057;-73
2022/09/12 07:12:28;;;;;;;5.57;2.97;;;19.40;65.30;;;;;;5057134;28;20057;-73
2022/09/12 07:14:54;;;;;;;3.72;2.90;;;19.40;65.30;;;;;;5058417;28;20516;-74
2022/09/12 07:17:21;;;;;;;3.20;2.90;;;19.40;65.30;;;;;;5055359;28;20060;-73
2022/09/12 07:19:48;;;;;;;3.25;2.55;;;19.40;65.30;;;;;;5057892;28;20059;-73
2022/09/12 07:22:14;;;;;;;3.25;2.72;;;19.40;65.30;;;;;;5057196;28;20063;-74
2022/09/12 07:24:41;;;;;;;3.65;3.08;;;19.40;65.20;;;;;;5058248;28;20408;-75
2022/09/12 07:27:09;;;;;;;3.83;2.70;;;19.40;65.30;;;;;;5057063;28;20091;-73
2022/09/12 07:29:36;;;;;;;2.85;2.55;;;19.40;65.20;;;;;;5057070;28;20083;-71
2022/09/12 07:32:04;;;;;;;3.00;2.58;;;19.40;65.20;;;;;;5056986;28;20483;-72
2022/09/12 07:34:31;;;;;;;3.30;2.72;;;19.40;65.20;;;;;;5057126;28;20056;-71
2022/09/12 07:36:58;;;;;;;3.05;2.70;;;19.40;65.20;;;;;;5057038;28;20084;-73
2022/09/12 07:39:25;;;;;;;4.03;2.97;;;19.40;65.20;;;;;;5056631;28;20060;-72
2022/09/12 07:41:51;;;;;;;3.60;2.58;;;19.40;65.20;;;;;;5056771;28;20060;-73
2022/09/12 07:44:20;;;;;;;3.25;2.70;;;19.40;65.20;;;;;;5057262;28;20074;-73
2022/09/12 07:46:47;;;;;;;3.72;2.75;;;19.50;65.30;;;;;;5057054;28;20053;-74
2022/09/12 07:49:14;;;;;;;3.65;3.08;;;19.40;65.30;;;;;;5056311;28;20049;-74
2022/09/12 07:51:40;;;;;;;3.45;2.90;;;19.50;65.40;;;;;;5055620;28;20055;-74
2022/09/12 07:54:08;;;;;;;3.17;2.83;;;19.40;65.30;;;;;;5056630;28;20557;-74
2022/09/12 07:56:34;;;;;;;3.45;2.97;;;19.50;65.40;;;;;;5056156;28;20440;-74
2022/09/12 07:59:02;;;;;;;3.00;2.70;;;19.50;65.40;;;;;;5056794;28;20044;-72
2022/09/12 08:01:30;;;;;;;5.70;2.63;;;19.50;65.40;;;;;;5057582;28;20053;-72
2022/09/12 08:03:58;;;;;;;3.13;2.58;;;19.50;65.40;;;;;;5055711;28;20060;-72
2022/09/12 08:06:25;;;;;;;4.13;2.83;;;19.50;65.40;;;;;;5056763;28;20052;-72
2022/09/12 08:08:52;;;;;;;4.28;2.72;;;19.50;65.40;;;;;;5055583;28;20386;-72
2022/09/12 08:11:19;;;;;;;5.00;2.88;;;19.50;65.50;;;;;;5056950;28;20056;-70
2022/09/12 08:13:46;;;;;;;4.50;2.92;;;19.50;65.40;;;;;;5056360;28;20061;-71
2022/09/12 08:16:16;;;;;;;3.35;2.80;;;19.50;65.40;;;;;;5070221;28;20063;-70
2022/09/12 08:18:44;;;;;;;3.50;2.88;;;19.60;65.40;;;;;;5057185;28;20083;-71
2022/09/12 08:21:13;;;;;;;3.88;3.00;;;19.50;65.40;;;;;;5052391;28;20172;-71
2022/09/12 08:23:40;;;;;;;3.55;2.70;;;19.50;67.30;;;;;;5052879;28;20057;-70
2022/09/12 08:26:07;;;;;;;3.08;2.55;;;19.60;65.40;;;;;;5050800;28;20071;-70
2022/09/12 08:28:35;;;;;;;4.75;2.67;;;19.60;65.30;;;;;;5053913;28;20037;-70
2022/09/12 08:31:01;;;;;;;3.55;2.80;;;19.60;65.30;;;;;;5053716;28;20052;-70
2022/09/12 08:33:31;;;;;;;3.10;2.60;;;19.60;65.30;;;;;;5054006;28;20053;-71
2022/09/12 08:36:04;;;;;;;3.50;2.58;;;19.60;65.20;;;;;;5052947;28;20053;-72
2022/09/12 08:38:33;;;;;;;2.90;2.50;;;19.60;65.20;;;;;;5069730;28;20045;-74
2022/09/12 08:41:02;;;;;;;3.03;2.53;;;19.70;65.20;;;;;;5053940;28;20124;-71
2022/09/12 08:43:35;;;;;;;3.28;2.75;;;19.60;65.20;;;;;;5052502;28;20059;-71
2022/09/12 08:46:04;;;;;;;4.53;2.83;;;19.70;65.10;;;;;;5052298;28;20143;-71
2022/09/12 08:48:31;;;;;;;4.68;2.70;;;19.60;65.00;;;;;;5052597;28;20053;-71
2022/09/12 08:50:58;;;;;;;3.03;2.40;;;19.70;65.10;;;;;;5054160;28;20387;-73
2022/09/12 08:53:26;;;;;;;3.08;2.42;;;19.70;65.10;;;;;;5053213;28;20187;-73
2022/09/12 08:55:54;;;;;;;3.83;2.90;;;19.70;65.00;;;;;;5052717;28;20607;-72
2022/09/12 08:58:22;;;;;;;3.17;2.60;;;19.70;65.00;;;;;;5053023;28;20413;-71
2022/09/12 09:00:59;;;;;;;8.38;3.17;;;19.70;65.00;;;;;;5053599;28;20127;-71
2022/09/12 09:04:01;;;;;;;4.55;2.60;;;19.70;65.00;;;;;;5053875;28;20387;-71
2022/09/12 09:06:41;;;;;;;8.20;3.60;;;19.80;65.00;;;;;;5048530;28;20055;-71
2022/09/12 09:09:11;;;;;;;7.95;3.08;;;19.70;65.00;;;;;;5051676;28;20409;-73
2022/09/12 09:11:47;;;;;;;4.13;2.85;;;19.70;65.00;;;;;;5050949;28;20084;-72
2022/09/12 09:14:47;;;;;;;5.75;3.20;;;19.80;65.00;;;;;;5050708;28;20076;-72
2022/09/12 09:17:17;;;;;;;8.95;2.97;;;19.80;64.90;;;;;;5022475;28;20401;-71
2022/09/12 09:19:47;;;;;;;6.68;3.17;;;19.70;65.00;;;;;;5051097;28;20509;-70
2022/09/12 09:22:16;;;;;;;4.65;2.90;;;19.80;65.00;;;;;;5049661;28;20477;-71
2022/09/12 09:24:46;;;;;;;5.20;3.00;;;19.80;65.00;;;;;;5050058;28;20061;-70
2022/09/12 09:27:15;;;;;;;7.38;3.60;;;19.80;65.00;;;;;;5051637;28;20057;-70
2022/09/12 09:29:44;;;;;;;7.85;3.40;;;19.90;65.10;;;;;;5050094;28;20049;-71
2022/09/12 09:32:14;;;;;;;5.10;3.50;;;19.80;65.10;;;;;;5049422;28;20145;-71
2022/09/12 09:34:41;;;;;;;9.35;4.10;;;19.90;65.20;;;;;;5051555;28;20045;-71
2022/09/12 09:37:13;;;;;;;8.02;3.80;;;19.90;65.20;;;;;;5051861;28;20053;-72
2022/09/12 09:39:49;;;;;;;8.02;5.43;;;19.90;65.20;;;;;;5050213;28;20067;-72
2022/09/12 09:42:25;;;;;;;10.73;5.45;;;19.90;65.40;;;;;;5051447;28;20449;-72
2022/09/12 09:44:52;;;;;;;7.72;5.75;;;19.90;65.40;;;;;;5050507;28;20057;-73
2022/09/12 09:47:19;;;;;;;11.05;5.57;;;19.90;65.30;;;;;;5050014;28;20052;-73
2022/09/12 09:49:46;;;;;;;9.27;5.38;;;19.90;65.40;;;;;;5050103;28;20055;-74
2022/09/12 09:52:14;;;;;;;9.55;5.07;;;19.90;65.50;;;;;;5051049;28;20075;-73
2022/09/12 09:54:43;;;;;;;8.82;4.88;;;19.90;65.50;;;;;;5049543;28;20068;-73
2022/09/12 09:57:45;;;;;;;7.57;4.43;;;19.90;65.50;;;;;;5051407;28;20052;-71
2022/09/12 10:00:26;;;;;;;8.38;4.85;;;20.00;65.60;;;;;;5050749;28;20049;-71
2022/09/12 10:03:15;;;;;;;8.35;4.75;;;20.00;65.50;;;;;;5049980;28;20057;-71
2022/09/12 10:05:45;;;;;;;12.05;5.20;;;20.20;65.70;;;;;;5030077;28;20056;-71
2022/09/12 10:08:19;;;;;;;10.20;5.78;;;20.00;65.60;;;;;;5049405;28;20529;-71
2022/09/12 10:10:53;;;;;;;6.45;4.40;;;20.00;65.60;;;;;;5049455;28;20599;-71
2022/09/12 10:13:24;;;;;;;7.88;4.78;;;20.00;65.50;;;;;;5049663;28;20603;-71
2022/09/12 10:15:58;;;;;;;5.63;4.53;;;20.00;65.50;;;;;;5049713;28;20068;-71
2022/09/12 10:18:34;;;;;;;6.35;3.75;;;20.10;65.50;;;;;;5051070;28;20049;-71
2022/09/12 10:21:02;;;;;;;7.15;4.20;;;20.10;65.40;;;;;;5050493;28;20065;-71
2022/09/12 10:23:32;;;;;;;5.28;3.85;;;20.10;65.40;;;;;;5050984;28;20048;-71
2022/09/12 10:26:00;;;;;;;5.82;4.10;;;20.10;65.40;;;;;;5051193;28;20084;-72
2022/09/12 10:28:31;;;;;;;6.25;4.00;;;20.10;65.30;;;;;;5051294;28;20049;-72
2022/09/12 10:31:01;;;;;;;10.10;4.10;;;20.20;65.30;;;;;;5051115;28;20500;-71
2022/09/12 10:33:28;;;;;;;5.25;3.70;;;20.20;65.80;;;;;;5051103;28;20151;-71
2022/09/12 10:35:55;;;;;;;10.63;3.95;;;20.20;65.30;;;;;;5050885;28;20053;-71
2022/09/12 10:38:22;;;;;;;11.88;4.45;;;20.30;65.50;;;;;;5051958;28;20395;-71
2022/09/12 10:40:56;;;;;;;10.95;4.18;;;20.30;65.40;;;;;;5051788;28;20051;-71
2022/09/12 10:43:27;;;;;;;6.05;3.78;;;20.30;65.40;;;;;;5049544;28;20052;-71
2022/09/12 10:45:58;;;;;;;9.73;3.88;;;20.40;65.30;;;;;;5051758;28;20047;-71
2022/09/12 10:48:27;;;;;;;5.60;3.70;;;20.40;65.20;;;;;;5051981;28;20133;-73
2022/09/12 10:50:55;;;;;;;8.05;3.67;;;20.40;65.10;;;;;;5033736;28;20145;-72
2022/09/12 10:53:23;;;;;;;5.50;3.28;;;20.50;67.20;;;;;;5050612;28;20048;-71
2022/09/12 10:56:02;;;;;;;6.38;3.63;;;20.50;64.90;;;;;;5050016;28;20041;-71
2022/09/12 10:58:53;;;;;;;6.28;3.38;;;20.50;64.70;;;;;;5052423;28;20045;-71
2022/09/12 11:01:28;;;;;;;7.13;3.50;;;20.50;65.30;;;;;;5045189;28;20072;-71
2022/09/12 11:04:01;;;;;;;;;;;20.50;64.60;;;;;;5051079;28;20065;-71
2022/09/12 11:06:37;;;;;;;6.43;3.50;;;20.50;64.70;;;;;;5050251;28;19920;-71
2022/09/12 11:09:06;;;;;;;8.57;3.28;;;20.50;64.50;;;;;;5051463;28;20410;-71
2022/09/12 11:11:42;;;;;;;5.20;3.28;;;20.60;64.50;;;;;;5047792;28;20052;-71
2022/09/12 11:14:23;;;;;;;5.18;3.30;;;20.60;64.30;;;;;;5052011;28;20052;-71
2022/09/12 11:16:54;;;;;;;4.50;3.40;;;20.70;64.30;;;;;;5050377;28;20057;-71
2022/09/12 11:19:54;;;;;;;4.53;3.50;;;20.60;64.20;;;;;;5050563;28;20441;-71
2022/09/12 11:22:41;;;;;;;5.50;3.38;;;20.70;64.30;;;;;;5015595;28;20057;-71
2022/09/12 11:25:25;;;;;;;4.20;2.97;;;20.70;64.30;;;;;;5050576;28;20053;-72
2022/09/12 11:28:13;;;;;;;4.75;3.10;;;20.70;64.10;;;;;;5050359;28;20091;-73
2022/09/12 11:30:46;;;;;;;5.72;3.30;;;20.80;64.20;;;;;;5049658;28;20533;-72
2022/09/12 11:33:28;;;;;;;5.30;2.90;;;20.80;64.00;;;;;;5050112;28;20059;-71
2022/09/12 11:35:56;;;;;;;5.40;3.33;;;20.80;64.00;;;;;;5049594;28;20052;-72
2022/09/12 11:38:33;;;;;;;4.00;3.08;;;20.80;64.00;;;;;;5050540;28;20053;-72
2022/09/12 11:41:01;;;;;;;5.07;3.40;;;20.90;64.20;;;;;;5050882;28;20425;-73
2022/09/12 11:43:32;;;;;;;5.45;3.50;;;20.90;64.10;;;;;;5049993;28;20053;-72
2022/09/12 11:46:00;;;;;;;6.82;3.17;;;20.90;63.90;;;;;;5050172;28;20482;-72
2022/09/12 11:48:34;;;;;;;6.38;3.05;;;20.90;63.90;;;;;;5050976;28;20519;-72
2022/09/12 11:51:02;;;;;;;4.80;3.20;;;20.90;63.80;;;;;;5049809;28;20060;-73
2022/09/12 11:53:32;;;;;;;5.13;3.80;;;21.00;63.90;;;;;;5050138;28;20314;-73
2022/09/12 11:56:02;;;;;;;5.63;3.42;;;21.00;63.90;;;;;;5051789;28;20085;-73
2022/09/12 11:58:29;;;;;;;4.68;3.10;;;21.00;63.80;;;;;;5052544;28;20059;-73
2022/09/12 12:00:57;;;;;;;5.68;3.30;;;21.00;63.80;;;;;;5053393;28;20063;-73
2022/09/12 12:03:26;;;;;;;4.43;3.47;;;21.00;63.70;;;;;;5053483;28;20074;-72
2022/09/12 12:05:57;;;;;;;6.13;3.78;;;21.00;63.70;;;;;;5053514;28;20092;-72
2022/09/12 12:08:25;;;;;;;5.32;2.97;;;21.00;63.60;;;;;;5053535;28;20504;-72
2022/09/12 12:10:54;;;;;;;4.38;3.30;;;21.00;63.60;;;;;;5052947;28;20049;-73
2022/09/12 12:13:22;;;;;;;6.10;3.60;;;21.00;63.60;;;;;;5054719;28;20056;-72
2022/09/12 12:15:51;;;;;;;4.72;2.95;;;21.00;63.70;;;;;;5053754;28;20057;-73
2022/09/12 12:18:18;;;;;;;4.28;3.20;;;21.00;63.60;;;;;;5052895;28;20143;-73
2022/09/12 12:20:45;;;;;;;4.40;3.10;;;21.10;63.70;;;;;;5053791;28;20156;-73
2022/09/12 12:23:24;;;;;;;5.95;3.10;;;21.10;63.60;;;;;;5053388;28;20057;-72
2022/09/12 12:25:52;;;;;;;4.68;3.38;;;21.10;63.60;;;;;;5052565;28;20413;-73
2022/09/12 12:28:56;;;;;;;5.13;3.35;;;21.10;63.60;;;;;;5053498;28;20512;-72
2022/09/12 12:31:22;;;;;;;4.30;3.20;;;21.00;63.60;;;;;;5031683;28;20128;-71
2022/09/12 12:34:14;;;;;;;4.00;2.83;;;21.00;63.70;;;;;;5045616;28;20061;-71
2022/09/12 12:36:41;;;;;;;4.60;2.78;;;21.10;63.70;;;;;;5053036;28;20063;-71
2022/09/12 12:39:41;;;;;;;4.60;2.90;;;21.10;63.70;;;;;;5052923;28;20049;-71
2022/09/12 12:42:09;;;;;;;5.38;3.42;;;21.10;63.70;;;;;;5049337;28;20142;-71
2022/09/12 12:44:50;;;;;;;6.03;3.42;;;21.00;63.60;;;;;;5052597;28;20505;-71
2022/09/12 12:47:18;;;;;;;4.80;3.20;;;21.10;63.80;;;;;;5053188;28;20138;-71
2022/09/12 12:49:50;;;;;;;4.60;3.17;;;21.10;63.70;;;;;;5035449;28;20107;-72
2022/09/12 12:52:17;;;;;;;4.47;3.38;;;21.10;63.70;;;;;;5043176;28;20056;-71
2022/09/12 12:54:54;;;;;;;4.57;3.00;;;21.10;63.70;;;;;;5052730;28;20051;-73
2022/09/12 12:57:47;;;;;;;6.78;3.50;;;21.10;63.80;;;;;;5052163;28;20057;-71
2022/09/12 13:00:30;;;;;;;3.90;3.05;;;21.20;63.80;;;;;;5049260;28;20426;-71
2022/09/12 13:02:58;;;;;;;3.95;3.15;;;21.10;63.80;;;;;;5052916;28;20048;-71